sensor_id;sensor_type;location;lat;lon;timestamp;pressure;altitude;pressure_sealevel;temperature;humidity
6194;BME280;3130;41.564;23.280;2022-07-10T00:01:55;98586.78;;;18.92;89.08
6194;BME280;3130;41.564;23.280;2022-07-10T00:04:22;98632.66;;;19.19;89.12
6194;BME280;3130;41.564;23.280;2022-07-10T00:06:49;98630.91;;;19.19;90.00
6194;BME280;3130;41.564;23.280;2022-07-10T00:09:21;98599.84;;;19.00;90.43
6194;BME280;3130;41.564;23.280;2022-07-10T00:11:52;98633.50;;;19.19;91.03
6194;BME280;3130;41.564;23.280;2022-07-10T00:14:19;98601.28;;;18.95;91.27
6194;BME280;3130;41.564;23.280;2022-07-10T00:16:46;98551.63;;;18.80;91.33
6194;BME280;3130;41.564;23.280;2022-07-10T00:19:13;98616.94;;;19.20;90.55
6194;BME280;3130;41.564;23.280;2022-07-10T00:21:41;98551.75;;;18.96;91.11
6194;BME280;3130;41.564;23.280;2022-07-10T00:24:08;98539.22;;;18.92;90.64
6194;BME280;3130;41.564;23.280;2022-07-10T00:26:39;98559.44;;;19.06;90.75
6194;BME280;3130;41.564;23.280;2022-07-10T00:29:08;98588.03;;;19.23;90.67
6194;BME280;3130;41.564;23.280;2022-07-10T00:31:36;98620.09;;;19.31;90.59
6194;BME280;3130;41.564;23.280;2022-07-10T00:34:03;98590.88;;;18.95;92.09
6194;BME280;3130;41.564;23.280;2022-07-10T00:36:30;98604.75;;;19.03;92.11
6194;BME280;3130;41.564;23.280;2022-07-10T00:38:58;98585.81;;;18.93;92.97
6194;BME280;3130;41.564;23.280;2022-07-10T00:41:25;98602.63;;;18.81;93.87
6194;BME280;3130;41.564;23.280;2022-07-10T00:43:55;98564.66;;;18.45;93.93
6194;BME280;3130;41.564;23.280;2022-07-10T00:46:23;98606.31;;;18.53;94.91
6194;BME280;3130;41.564;23.280;2022-07-10T00:48:51;98549.03;;;18.11;96.45
6194;BME280;3130;41.564;23.280;2022-07-10T00:51:20;98535.63;;;17.98;96.94
6194;BME280;3130;41.564;23.280;2022-07-10T00:53:48;98600.94;;;18.37;97.57
6194;BME280;3130;41.564;23.280;2022-07-10T00:56:19;98504.69;;;17.87;97.53
6194;BME280;3130;41.564;23.280;2022-07-10T00:58:47;98536.34;;;18.08;96.57
6194;BME280;3130;41.564;23.280;2022-07-10T01:01:17;98562.38;;;18.25;95.67
6194;BME280;3130;41.564;23.280;2022-07-10T01:03:45;98505.56;;;17.95;96.19
6194;BME280;3130;41.564;23.280;2022-07-10T01:06:13;98581.72;;;18.48;94.59
6194;BME280;3130;41.564;23.280;2022-07-10T01:08:41;98580.84;;;18.57;94.46
6194;BME280;3130;41.564;23.280;2022-07-10T01:11:09;98529.59;;;18.24;95.21
6194;BME280;3130;41.564;23.280;2022-07-10T01:13:37;98584.53;;;18.54;95.71
6194;BME280;3130;41.564;23.280;2022-07-10T01:16:04;98576.38;;;18.49;96.31
6194;BME280;3130;41.564;23.280;2022-07-10T01:18:33;98578.78;;;18.43;97.03
6194;BME280;3130;41.564;23.280;2022-07-10T01:21:01;98567.84;;;18.39;96.89
6194;BME280;3130;41.564;23.280;2022-07-10T01:23:28;98574.59;;;18.50;96.76
6194;BME280;3130;41.564;23.280;2022-07-10T01:25:56;98566.97;;;18.48;96.39
6194;BME280;3130;41.564;23.280;2022-07-10T01:28:23;98564.75;;;18.53;95.67
6194;BME280;3130;41.564;23.280;2022-07-10T01:30:51;98568.53;;;18.59;96.05
6194;BME280;3130;41.564;23.280;2022-07-10T01:33:21;98561.75;;;18.66;96.03
6194;BME280;3130;41.564;23.280;2022-07-10T01:35:48;98555.00;;;18.55;95.71
6194;BME280;3130;41.564;23.280;2022-07-10T01:38:17;98496.09;;;18.21;95.78
6194;BME280;3130;41.564;23.280;2022-07-10T01:40:44;98552.94;;;18.59;95.44
6194;BME280;3130;41.564;23.280;2022-07-10T01:43:11;98528.97;;;18.47;93.71
6194;BME280;3130;41.564;23.280;2022-07-10T01:45:38;98480.16;;;18.16;90.83
6194;BME280;3130;41.564;23.280;2022-07-10T01:48:06;98552.09;;;18.58;87.77
6194;BME280;3130;41.564;23.280;2022-07-10T01:50:33;98561.16;;;18.54;88.16
6194;BME280;3130;41.564;23.280;2022-07-10T01:53:00;98559.84;;;18.50;87.44
6194;BME280;3130;41.564;23.280;2022-07-10T01:55:33;98559.56;;;18.53;87.33
6194;BME280;3130;41.564;23.280;2022-07-10T01:58:00;98555.97;;;18.54;86.76
6194;BME280;3130;41.564;23.280;2022-07-10T02:00:28;98482.47;;;18.19;86.17
6194;BME280;3130;41.564;23.280;2022-07-10T02:02:55;98561.31;;;18.70;85.75
6194;BME280;3130;41.564;23.280;2022-07-10T02:05:39;98566.41;;;18.80;84.91
6194;BME280;3130;41.564;23.280;2022-07-10T02:08:10;98553.19;;;18.73;85.02
6194;BME280;3130;41.564;23.280;2022-07-10T02:10:40;98557.50;;;18.65;85.52
6194;BME280;3130;41.564;23.280;2022-07-10T02:13:07;98559.38;;;18.55;85.86
6194;BME280;3130;41.564;23.280;2022-07-10T02:15:35;98559.19;;;18.48;86.10
6194;BME280;3130;41.564;23.280;2022-07-10T02:18:02;98502.91;;;18.05;86.38
6194;BME280;3130;41.564;23.280;2022-07-10T02:20:29;98561.97;;;18.37;86.94
6194;BME280;3130;41.564;23.280;2022-07-10T02:22:58;98563.78;;;18.37;87.18
6194;BME280;3130;41.564;23.280;2022-07-10T02:25:25;98566.88;;;18.40;86.98
6194;BME280;3130;41.564;23.280;2022-07-10T02:27:54;98566.38;;;18.37;86.96
6194;BME280;3130;41.564;23.280;2022-07-10T02:30:22;98554.59;;;18.25;86.43
6194;BME280;3130;41.564;23.280;2022-07-10T02:32:49;98573.66;;;18.33;86.48
6194;BME280;3130;41.564;23.280;2022-07-10T02:35:16;98575.69;;;18.30;86.80
6194;BME280;3130;41.564;23.280;2022-07-10T02:37:44;98497.50;;;17.81;87.50
6194;BME280;3130;41.564;23.280;2022-07-10T02:40:11;98528.81;;;17.97;88.16
6194;BME280;3130;41.564;23.280;2022-07-10T02:42:38;98565.81;;;18.16;88.46
6194;BME280;3130;41.564;23.280;2022-07-10T02:45:08;98575.19;;;18.26;88.84
6194;BME280;3130;41.564;23.280;2022-07-10T02:47:35;98569.75;;;18.20;89.14
6194;BME280;3130;41.564;23.280;2022-07-10T02:50:02;98582.53;;;18.31;89.21
6194;BME280;3130;41.564;23.280;2022-07-10T02:52:30;98547.75;;;17.97;90.02
6194;BME280;3130;41.564;23.280;2022-07-10T02:54:57;98590.97;;;18.16;90.98
6194;BME280;3130;41.564;23.280;2022-07-10T02:57:25;98590.06;;;18.07;91.56
6194;BME280;3130;41.564;23.280;2022-07-10T02:59:53;98565.19;;;17.87;92.39
6194;BME280;3130;41.564;23.280;2022-07-10T03:02:22;98591.44;;;18.02;92.94
6194;BME280;3130;41.564;23.280;2022-07-10T03:04:49;98595.06;;;17.91;93.47
6194;BME280;3130;41.564;23.280;2022-07-10T03:07:16;98576.28;;;17.80;93.49
6194;BME280;3130;41.564;23.280;2022-07-10T03:09:43;98588.13;;;17.82;94.09
6194;BME280;3130;41.564;23.280;2022-07-10T03:12:10;98582.56;;;17.77;94.78
6194;BME280;3130;41.564;23.280;2022-07-10T03:14:38;98585.03;;;17.79;94.83
6194;BME280;3130;41.564;23.280;2022-07-10T03:17:05;98590.22;;;17.79;95.35
6194;BME280;3130;41.564;23.280;2022-07-10T03:19:34;98541.84;;;17.33;95.45
6194;BME280;3130;41.564;23.280;2022-07-10T03:22:01;98511.09;;;17.02;96.39
6194;BME280;3130;41.564;23.280;2022-07-10T03:24:28;98579.31;;;17.39;97.64
6194;BME280;3130;41.564;23.280;2022-07-10T03:26:55;98580.81;;;17.41;98.14
6194;BME280;3130;41.564;23.280;2022-07-10T03:29:23;98583.16;;;17.35;97.10
6194;BME280;3130;41.564;23.280;2022-07-10T03:31:50;98588.59;;;17.22;97.70
6194;BME280;3130;41.564;23.280;2022-07-10T03:34:17;98587.56;;;17.16;97.94
6194;BME280;3130;41.564;23.280;2022-07-10T03:36:46;98576.97;;;17.00;98.79
6194;BME280;3130;41.564;23.280;2022-07-10T03:39:13;98587.84;;;17.13;98.77
6194;BME280;3130;41.564;23.280;2022-07-10T03:41:40;98489.94;;;16.61;98.25
6194;BME280;3130;41.564;23.280;2022-07-10T03:44:10;98589.00;;;17.27;97.88
6194;BME280;3130;41.564;23.280;2022-07-10T03:46:37;98551.84;;;17.00;96.62
6194;BME280;3130;41.564;23.280;2022-07-10T03:49:04;98550.09;;;17.01;96.82
6194;BME280;3130;41.564;23.280;2022-07-10T03:51:32;98590.41;;;17.22;96.37
6194;BME280;3130;41.564;23.280;2022-07-10T03:54:00;98586.56;;;17.26;96.91
6194;BME280;3130;41.564;23.280;2022-07-10T03:56:27;98592.28;;;17.29;96.13
6194;BME280;3130;41.564;23.280;2022-07-10T03:59:12;98587.25;;;17.28;96.17
6194;BME280;3130;41.564;23.280;2022-07-10T04:01:39;98581.25;;;17.18;96.01
6194;BME280;3130;41.564;23.280;2022-07-10T04:04:06;98558.53;;;17.12;95.76
6194;BME280;3130;41.564;23.280;2022-07-10T04:06:33;98575.00;;;17.30;96.03
6194;BME280;3130;41.564;23.280;2022-07-10T04:09:05;98597.19;;;17.42;96.26
6194;BME280;3130;41.564;23.280;2022-07-10T04:11:32;98598.44;;;17.38;96.40
6194;BME280;3130;41.564;23.280;2022-07-10T04:14:00;98598.81;;;17.43;96.49
6194;BME280;3130;41.564;23.280;2022-07-10T04:16:27;98597.00;;;17.53;96.49
6194;BME280;3130;41.564;23.280;2022-07-10T04:18:54;98600.69;;;17.60;95.18
6194;BME280;3130;41.564;23.280;2022-07-10T04:21:21;98539.75;;;17.37;95.07
6194;BME280;3130;41.564;23.280;2022-07-10T04:23:48;98589.44;;;17.69;94.16
6194;BME280;3130;41.564;23.280;2022-07-10T04:26:17;98585.47;;;17.74;94.05
6194;BME280;3130;41.564;23.280;2022-07-10T04:28:44;98604.56;;;18.00;93.41
6194;BME280;3130;41.564;23.280;2022-07-10T04:31:11;98594.06;;;17.92;93.17
6194;BME280;3130;41.564;23.280;2022-07-10T04:33:38;98606.66;;;18.14;92.81
6194;BME280;3130;41.564;23.280;2022-07-10T04:36:06;98602.81;;;18.18;91.47
6194;BME280;3130;41.564;23.280;2022-07-10T04:38:33;98600.94;;;18.11;90.24
6194;BME280;3130;41.564;23.280;2022-07-10T04:41:01;98591.75;;;17.99;89.59
6194;BME280;3130;41.564;23.280;2022-07-10T04:43:29;98606.53;;;18.16;89.25
6194;BME280;3130;41.564;23.280;2022-07-10T04:45:57;98586.84;;;17.96;89.24
6194;BME280;3130;41.564;23.280;2022-07-10T04:48:24;98597.00;;;18.07;90.19
6194;BME280;3130;41.564;23.280;2022-07-10T04:50:51;98592.03;;;18.13;89.81
6194;BME280;3130;41.564;23.280;2022-07-10T04:53:18;98512.28;;;17.71;89.57
6194;BME280;3130;41.564;23.280;2022-07-10T04:55:45;98594.03;;;18.28;89.36
6194;BME280;3130;41.564;23.280;2022-07-10T04:58:13;98556.53;;;18.14;89.15
6194;BME280;3130;41.564;23.280;2022-07-10T05:00:41;98591.13;;;18.49;88.48
6194;BME280;3130;41.564;23.280;2022-07-10T05:03:09;98583.94;;;18.60;87.01
6194;BME280;3130;41.564;23.280;2022-07-10T05:05:36;98553.06;;;18.57;86.62
6194;BME280;3130;41.564;23.280;2022-07-10T05:08:03;98536.22;;;18.61;86.25
6194;BME280;3130;41.564;23.280;2022-07-10T05:10:30;98577.22;;;18.93;83.40
6194;BME280;3130;41.564;23.280;2022-07-10T05:12:57;98598.88;;;19.19;81.58
6194;BME280;3130;41.564;23.280;2022-07-10T05:15:25;98602.19;;;19.28;80.91
6194;BME280;3130;41.564;23.280;2022-07-10T05:17:53;98600.59;;;19.35;80.30
6194;BME280;3130;41.564;23.280;2022-07-10T05:20:20;98605.25;;;19.49;79.06
6194;BME280;3130;41.564;23.280;2022-07-10T05:22:48;98602.56;;;19.67;78.50
6194;BME280;3130;41.564;23.280;2022-07-10T05:25:15;98604.88;;;19.78;77.77
6194;BME280;3130;41.564;23.280;2022-07-10T05:27:42;98609.31;;;19.85;77.40
6194;BME280;3130;41.564;23.280;2022-07-10T05:30:10;98603.47;;;19.91;76.32
6194;BME280;3130;41.564;23.280;2022-07-10T05:32:42;98600.06;;;19.91;76.63
6194;BME280;3130;41.564;23.280;2022-07-10T05:35:12;98595.88;;;19.98;76.00
6194;BME280;3130;41.564;23.280;2022-07-10T05:37:39;98597.03;;;20.03;75.86
6194;BME280;3130;41.564;23.280;2022-07-10T05:40:07;98577.28;;;19.93;75.45
6194;BME280;3130;41.564;23.280;2022-07-10T05:42:35;98570.47;;;19.92;75.12
6194;BME280;3130;41.564;23.280;2022-07-10T05:45:02;98565.47;;;19.98;76.00
6194;BME280;3130;41.564;23.280;2022-07-10T05:47:31;98590.25;;;20.18;77.14
6194;BME280;3130;41.564;23.280;2022-07-10T05:49:58;98586.84;;;20.26;74.77
6194;BME280;3130;41.564;23.280;2022-07-10T05:52:27;98587.00;;;20.40;75.47
6194;BME280;3130;41.564;23.280;2022-07-10T05:54:55;98591.94;;;20.51;76.04
6194;BME280;3130;41.564;23.280;2022-07-10T05:57:23;98585.09;;;20.66;75.85
6194;BME280;3130;41.564;23.280;2022-07-10T05:59:51;98582.53;;;20.82;74.20
6194;BME280;3130;41.564;23.280;2022-07-10T06:02:18;98579.75;;;20.91;73.09
6194;BME280;3130;41.564;23.280;2022-07-10T06:04:45;98515.88;;;20.55;72.93
6194;BME280;3130;41.564;23.280;2022-07-10T06:07:12;98538.38;;;20.80;73.39
6194;BME280;3130;41.564;23.280;2022-07-10T06:09:41;98573.19;;;21.19;72.98
6194;BME280;3130;41.564;23.280;2022-07-10T06:12:08;98566.00;;;21.29;71.32
6194;BME280;3130;41.564;23.280;2022-07-10T06:14:36;98550.69;;;21.26;70.61
6194;BME280;3130;41.564;23.280;2022-07-10T06:17:03;98567.59;;;21.38;70.28
6194;BME280;3130;41.564;23.280;2022-07-10T06:19:30;98494.84;;;20.97;70.76
6194;BME280;3130;41.564;23.280;2022-07-10T06:21:57;98507.38;;;21.09;70.69
6194;BME280;3130;41.564;23.280;2022-07-10T06:24:44;98570.16;;;21.62;70.93
6194;BME280;3130;41.564;23.280;2022-07-10T06:27:11;98527.75;;;21.60;70.88
6194;BME280;3130;41.564;23.280;2022-07-10T06:29:38;98547.16;;;21.96;69.48
6194;BME280;3130;41.564;23.280;2022-07-10T06:32:06;98553.28;;;22.11;70.79
6194;BME280;3130;41.564;23.280;2022-07-10T06:34:33;98540.63;;;22.22;67.58
6194;BME280;3130;41.564;23.280;2022-07-10T06:37:01;98545.81;;;22.30;68.14
6194;BME280;3130;41.564;23.280;2022-07-10T06:39:32;98548.22;;;22.40;66.51
6194;BME280;3130;41.564;23.280;2022-07-10T06:42:03;98540.72;;;22.59;69.21
6194;BME280;3130;41.564;23.280;2022-07-10T06:44:30;98550.59;;;22.86;68.13
6194;BME280;3130;41.564;23.280;2022-07-10T06:46:58;98552.16;;;22.95;67.40
6194;BME280;3130;41.564;23.280;2022-07-10T06:49:43;98548.31;;;23.05;65.80
6194;BME280;3130;41.564;23.280;2022-07-10T06:52:12;98526.91;;;22.87;65.17
6194;BME280;3130;41.564;23.280;2022-07-10T06:54:39;98536.88;;;22.69;65.76
6194;BME280;3130;41.564;23.280;2022-07-10T06:57:09;98548.13;;;22.92;65.40
6194;BME280;3130;41.564;23.280;2022-07-10T06:59:36;98542.13;;;23.06;65.14
6194;BME280;3130;41.564;23.280;2022-07-10T07:02:04;98545.91;;;23.18;63.58
6194;BME280;3130;41.564;23.280;2022-07-10T07:04:31;98506.06;;;22.94;63.87
6194;BME280;3130;41.564;23.280;2022-07-10T07:06:59;98547.81;;;23.53;61.41
6194;BME280;3130;41.564;23.280;2022-07-10T07:09:26;98546.06;;;23.74;58.34
6194;BME280;3130;41.564;23.280;2022-07-10T07:11:53;98530.78;;;23.92;56.59
6194;BME280;3130;41.564;23.280;2022-07-10T07:14:21;98533.44;;;24.13;55.96
6194;BME280;3130;41.564;23.280;2022-07-10T07:16:49;98509.13;;;23.84;54.99
6194;BME280;3130;41.564;23.280;2022-07-10T07:19:26;98529.78;;;24.08;55.42
6194;BME280;3130;41.564;23.280;2022-07-10T07:21:58;98525.84;;;24.18;53.97
6194;BME280;3130;41.564;23.280;2022-07-10T07:24:43;98523.66;;;24.22;54.81
6194;BME280;3130;41.564;23.280;2022-07-10T07:27:11;98515.31;;;24.33;54.19
6194;BME280;3130;41.564;23.280;2022-07-10T07:29:40;98514.91;;;24.50;54.38
6194;BME280;3130;41.564;23.280;2022-07-10T07:32:07;98510.31;;;24.58;54.58
6194;BME280;3130;41.564;23.280;2022-07-10T07:34:35;98504.50;;;24.21;54.22
6194;BME280;3130;41.564;23.280;2022-07-10T07:37:03;98512.25;;;24.29;53.74
6194;BME280;3130;41.564;23.280;2022-07-10T07:39:30;98500.66;;;24.38;53.76
6194;BME280;3130;41.564;23.280;2022-07-10T07:41:59;98512.69;;;24.53;53.29
6194;BME280;3130;41.564;23.280;2022-07-10T07:44:26;98460.19;;;24.26;52.48
6194;BME280;3130;41.564;23.280;2022-07-10T07:46:57;98457.25;;;24.36;52.79
6194;BME280;3130;41.564;23.280;2022-07-10T07:49:24;98481.16;;;24.68;54.36
6194;BME280;3130;41.564;23.280;2022-07-10T07:51:51;98506.78;;;25.00;53.34
6194;BME280;3130;41.564;23.280;2022-07-10T07:54:18;98460.53;;;24.92;52.43
6194;BME280;3130;41.564;23.280;2022-07-10T07:56:46;98509.75;;;25.52;51.44
6194;BME280;3130;41.564;23.280;2022-07-10T07:59:13;98508.91;;;25.85;49.74
6194;BME280;3130;41.564;23.280;2022-07-10T08:01:41;98502.75;;;26.31;48.17
6194;BME280;3130;41.564;23.280;2022-07-10T08:04:09;98507.66;;;26.47;47.66
6194;BME280;3130;41.564;23.280;2022-07-10T08:06:37;98479.72;;;26.65;46.71
6194;BME280;3130;41.564;23.280;2022-07-10T08:09:04;98493.69;;;26.72;45.47
6194;BME280;3130;41.564;23.280;2022-07-10T08:11:31;98515.34;;;26.74;46.97
6194;BME280;3130;41.564;23.280;2022-07-10T08:13:59;98469.59;;;26.50;44.84
6194;BME280;3130;41.564;23.280;2022-07-10T08:16:26;98466.56;;;26.40;46.11
6194;BME280;3130;41.564;23.280;2022-07-10T08:18:53;98512.31;;;26.58;46.63
6194;BME280;3130;41.564;23.280;2022-07-10T08:21:22;98496.88;;;26.29;47.73
6194;BME280;3130;41.564;23.280;2022-07-10T08:23:49;98454.50;;;25.79;48.05
6194;BME280;3130;41.564;23.280;2022-07-10T08:26:18;98502.31;;;26.28;47.72
6194;BME280;3130;41.564;23.280;2022-07-10T08:28:46;98469.22;;;25.73;49.00
6194;BME280;3130;41.564;23.280;2022-07-10T08:31:13;98510.41;;;26.20;47.91
6194;BME280;3130;41.564;23.280;2022-07-10T08:33:40;98467.91;;;26.10;47.56
6194;BME280;3130;41.564;23.280;2022-07-10T08:36:07;98511.69;;;26.56;46.66
6194;BME280;3130;41.564;23.280;2022-07-10T08:38:36;98520.41;;;26.69;46.55
6194;BME280;3130;41.564;23.280;2022-07-10T08:41:05;98505.84;;;26.73;45.76
6194;BME280;3130;41.564;23.280;2022-07-10T08:43:32;98513.53;;;26.94;45.76
6194;BME280;3130;41.564;23.280;2022-07-10T08:46:00;98510.66;;;27.02;45.62
6194;BME280;3130;41.564;23.280;2022-07-10T08:48:28;98510.66;;;27.02;45.21
6194;BME280;3130;41.564;23.280;2022-07-10T08:51:03;98509.03;;;27.01;45.43
6194;BME280;3130;41.564;23.280;2022-07-10T08:53:32;98446.69;;;26.82;43.91
6194;BME280;3130;41.564;23.280;2022-07-10T08:56:01;98471.00;;;26.84;44.27
6194;BME280;3130;41.564;23.280;2022-07-10T08:58:29;98413.53;;;26.68;44.92
6194;BME280;3130;41.564;23.280;2022-07-10T09:01:00;98428.91;;;26.78;43.74
6194;BME280;3130;41.564;23.280;2022-07-10T09:03:36;98492.19;;;27.35;44.14
6194;BME280;3130;41.564;23.280;2022-07-10T09:06:07;98419.34;;;26.90;43.30
6194;BME280;3130;41.564;23.280;2022-07-10T09:08:34;98440.00;;;26.99;43.36
6194;BME280;3130;41.564;23.280;2022-07-10T09:14:11;98496.91;;;27.20;45.79
6194;BME280;3130;41.564;23.280;2022-07-10T09:16:40;98448.50;;;27.08;43.42
6194;BME280;3130;41.564;23.280;2022-07-10T09:19:18;98494.19;;;27.39;44.14
6194;BME280;3130;41.564;23.280;2022-07-10T09:21:48;98487.13;;;27.40;43.73
6194;BME280;3130;41.564;23.280;2022-07-10T09:24:16;98434.31;;;27.22;44.30
6194;BME280;3130;41.564;23.280;2022-07-10T09:26:58;98479.72;;;27.67;41.67
6194;BME280;3130;41.564;23.280;2022-07-10T09:29:29;98397.38;;;27.35;42.16
6194;BME280;3130;41.564;23.280;2022-07-10T09:32:00;98387.69;;;27.22;41.45
6194;BME280;3130;41.564;23.280;2022-07-10T09:34:44;98430.09;;;27.58;42.52
6194;BME280;3130;41.564;23.280;2022-07-10T09:38:10;98378.94;;;27.35;41.40
6194;BME280;3130;41.564;23.280;2022-07-10T09:40:33;98394.88;;;27.46;40.73
6194;BME280;3130;41.564;23.280;2022-07-10T09:43:01;98459.78;;;27.84;41.40
6194;BME280;3130;41.564;23.280;2022-07-10T09:45:29;98463.25;;;27.78;42.26
6194;BME280;3130;41.564;23.280;2022-07-10T09:47:57;98376.34;;;27.28;41.43
6194;BME280;3130;41.564;23.280;2022-07-10T09:50:27;98427.25;;;27.66;41.60
6194;BME280;3130;41.564;23.280;2022-07-10T09:52:56;98461.25;;;28.05;40.88
6194;BME280;3130;41.564;23.280;2022-07-10T09:55:25;98460.41;;;28.11;41.63
6194;BME280;3130;41.564;23.280;2022-07-10T09:57:56;98461.56;;;28.28;40.08
6194;BME280;3130;41.564;23.280;2022-07-10T10:00:26;98456.06;;;28.29;39.29
6194;BME280;3130;41.564;23.280;2022-07-10T10:02:59;98429.19;;;28.08;39.85
6194;BME280;3130;41.564;23.280;2022-07-10T10:05:35;98443.50;;;28.25;39.19
6194;BME280;3130;41.564;23.280;2022-07-10T10:08:09;98450.09;;;28.40;39.57
6194;BME280;3130;41.564;23.280;2022-07-10T10:10:40;98455.53;;;28.45;39.14
6194;BME280;3130;41.564;23.280;2022-07-10T10:13:10;98398.91;;;28.17;39.37
6194;BME280;3130;41.564;23.280;2022-07-10T10:15:39;98451.81;;;28.53;39.47
6194;BME280;3130;41.564;23.280;2022-07-10T10:18:07;98440.63;;;28.57;38.34
6194;BME280;3130;41.564;23.280;2022-07-10T10:20:36;98444.38;;;28.68;38.39
6194;BME280;3130;41.564;23.280;2022-07-10T10:23:04;98428.53;;;28.68;38.90
6194;BME280;3130;41.564;23.280;2022-07-10T10:25:33;98432.50;;;28.76;38.92
6194;BME280;3130;41.564;23.280;2022-07-10T10:28:05;98375.50;;;28.51;39.14
6194;BME280;3130;41.564;23.280;2022-07-10T10:30:36;98419.69;;;28.80;38.42
6194;BME280;3130;41.564;23.280;2022-07-10T10:36:03;98379.47;;;28.11;38.86
6194;BME280;3130;41.564;23.280;2022-07-10T10:39:00;98399.31;;;28.45;39.83
6194;BME280;3130;41.564;23.280;2022-07-10T10:41:28;98413.66;;;28.73;39.10
6194;BME280;3130;41.564;23.280;2022-07-10T10:44:24;98392.38;;;28.68;38.83
6194;BME280;3130;41.564;23.280;2022-07-10T10:46:56;98416.47;;;28.78;39.22
6194;BME280;3130;41.564;23.280;2022-07-10T10:49:28;98413.00;;;28.77;38.42
6194;BME280;3130;41.564;23.280;2022-07-10T10:52:16;98408.25;;;28.86;37.49
6194;BME280;3130;41.564;23.280;2022-07-10T10:55:01;98391.63;;;28.85;38.66
6194;BME280;3130;41.564;23.280;2022-07-10T10:57:40;98398.28;;;29.06;37.58
6194;BME280;3130;41.564;23.280;2022-07-10T11:00:15;98405.94;;;29.14;38.31
6194;BME280;3130;41.564;23.280;2022-07-10T11:03:19;98342.53;;;28.78;38.01
6194;BME280;3130;41.564;23.280;2022-07-10T11:05:47;98337.88;;;28.56;37.50
6194;BME280;3130;41.564;23.280;2022-07-10T11:08:36;98315.06;;;28.25;38.75
6194;BME280;3130;41.564;23.280;2022-07-10T11:11:36;98378.66;;;28.60;38.56
6194;BME280;3130;41.564;23.280;2022-07-10T11:14:06;98385.72;;;28.66;38.17
6194;BME280;3130;41.564;23.280;2022-07-10T11:16:34;98383.34;;;28.75;40.41
6194;BME280;3130;41.564;23.280;2022-07-10T11:19:02;98366.13;;;28.73;41.87
6194;BME280;3130;41.564;23.280;2022-07-10T11:21:41;98334.69;;;28.29;43.63
6194;BME280;3130;41.564;23.280;2022-07-10T11:24:29;98357.94;;;28.39;43.50
6194;BME280;3130;41.564;23.280;2022-07-10T11:27:09;98359.25;;;28.30;44.00
6194;BME280;3130;41.564;23.280;2022-07-10T11:29:39;98280.59;;;27.47;44.83
6194;BME280;3130;41.564;23.280;2022-07-10T11:32:07;98355.44;;;27.70;46.37
6194;BME280;3130;41.564;23.280;2022-07-10T11:34:34;98353.25;;;27.61;46.58
6194;BME280;3130;41.564;23.280;2022-07-10T11:37:02;98344.41;;;27.49;46.62
6194;BME280;3130;41.564;23.280;2022-07-10T11:39:31;98332.25;;;27.48;44.32
6194;BME280;3130;41.564;23.280;2022-07-10T11:41:58;98349.19;;;27.59;44.27
6194;BME280;3130;41.564;23.280;2022-07-10T11:44:25;98346.34;;;27.67;45.07
6194;BME280;3130;41.564;23.280;2022-07-10T11:46:53;98350.25;;;27.88;43.60
6194;BME280;3130;41.564;23.280;2022-07-10T11:49:22;98354.94;;;28.11;40.95
6194;BME280;3130;41.564;23.280;2022-07-10T11:51:49;98331.56;;;28.14;39.56
6194;BME280;3130;41.564;23.280;2022-07-10T11:54:17;98341.97;;;28.34;38.93
6194;BME280;3130;41.564;23.280;2022-07-10T11:56:52;98354.50;;;28.38;38.41
6194;BME280;3130;41.564;23.280;2022-07-10T11:59:24;98296.47;;;28.14;39.70
6194;BME280;3130;41.564;23.280;2022-07-10T12:01:53;98339.06;;;28.60;40.94
6194;BME280;3130;41.564;23.280;2022-07-10T12:04:21;98344.00;;;28.74;42.28
6194;BME280;3130;41.564;23.280;2022-07-10T12:06:50;98333.19;;;28.75;41.41
6194;BME280;3130;41.564;23.280;2022-07-10T12:09:20;98329.78;;;28.75;42.47
6194;BME280;3130;41.564;23.280;2022-07-10T12:12:00;98305.00;;;28.58;42.46
6194;BME280;3130;41.564;23.280;2022-07-10T12:14:27;98341.94;;;28.76;42.49
6194;BME280;3130;41.564;23.280;2022-07-10T12:16:56;98341.78;;;28.71;42.26
6194;BME280;3130;41.564;23.280;2022-07-10T12:19:24;98324.56;;;28.69;41.90
6194;BME280;3130;41.564;23.280;2022-07-10T12:21:53;98336.31;;;28.73;42.30
6194;BME280;3130;41.564;23.280;2022-07-10T12:24:21;98333.50;;;28.68;42.29
6194;BME280;3130;41.564;23.280;2022-07-10T12:26:49;98318.53;;;28.44;41.93
6194;BME280;3130;41.564;23.280;2022-07-10T12:29:24;98337.06;;;28.37;43.29
6194;BME280;3130;41.564;23.280;2022-07-10T12:31:53;98334.69;;;28.29;43.85
6194;BME280;3130;41.564;23.280;2022-07-10T12:34:33;98288.97;;;27.93;43.97
6194;BME280;3130;41.564;23.280;2022-07-10T12:37:07;98340.28;;;28.15;43.51
6194;BME280;3130;41.564;23.280;2022-07-10T12:39:36;98281.00;;;27.75;43.58
6194;BME280;3130;41.564;23.280;2022-07-10T12:42:06;98273.94;;;27.69;43.74
6194;BME280;3130;41.564;23.280;2022-07-10T12:44:37;98338.34;;;28.04;42.94
6194;BME280;3130;41.564;23.280;2022-07-10T12:47:07;98269.28;;;27.64;43.72
6194;BME280;3130;41.564;23.280;2022-07-10T12:49:54;98330.91;;;27.94;43.05
6194;BME280;3130;41.564;23.280;2022-07-10T12:52:23;98340.91;;;27.92;42.60
6194;BME280;3130;41.564;23.280;2022-07-10T12:55:08;98339.06;;;27.93;43.64
6194;BME280;3130;41.564;23.280;2022-07-10T12:57:47;98322.28;;;27.87;43.88
6194;BME280;3130;41.564;23.280;2022-07-10T13:00:17;98341.81;;;28.04;43.78
6194;BME280;3130;41.564;23.280;2022-07-10T13:02:45;98285.31;;;27.69;43.52
6194;BME280;3130;41.564;23.280;2022-07-10T13:05:25;98314.78;;;27.84;43.84
6194;BME280;3130;41.564;23.280;2022-07-10T13:08:04;98320.84;;;27.85;44.38
6194;BME280;3130;41.564;23.280;2022-07-10T13:10:32;98324.19;;;27.98;44.43
6194;BME280;3130;41.564;23.280;2022-07-10T13:12:59;98329.41;;;28.05;46.00
6194;BME280;3130;41.564;23.280;2022-07-10T13:15:29;98258.59;;;27.66;46.47
6194;BME280;3130;41.564;23.280;2022-07-10T13:17:56;98320.38;;;27.94;47.54
6194;BME280;3130;41.564;23.280;2022-07-10T13:20:23;98304.94;;;27.98;47.53
6194;BME280;3130;41.564;23.280;2022-07-10T13:22:50;98299.56;;;28.11;48.59
6194;BME280;3130;41.564;23.280;2022-07-10T13:25:18;98296.53;;;28.32;43.11
6194;BME280;3130;41.564;23.280;2022-07-10T13:27:45;98297.94;;;28.52;44.89
6194;BME280;3130;41.564;23.280;2022-07-10T13:30:12;98259.19;;;28.53;41.20